Luverne, Minnesota
Current Conditions -  °F | °C
As of 4:55 AM on Sunday 23 Nov 2014 (Local Time) from KLYV Reporting Station
Moderate Fog Moderate Fog  
Wind Chill: 41°   Ceiling: 200
Heat Index: 41°   Visibility: 0mi
Dew Point: 39°   Wind: 3mph
Humidity: 93%   Direction: 30°NNE
Pressure: 29.43"   Gusts: NA
Location:  43.65°N, 96.21°W
Report Text: KLYV 231055Z AUTO 03003KT M1/4SM FG OVC002 05/04 A2943 RMK AO2
Loading
Personal Weather Stations






























Interactive Weather Map New forecast layout! Learn more

10-Day Weather Forecast

Advertisements
Track Severe Weather on mobile